createdAt,value
2023-05-24T00:05:43.707Z,6.8
2023-05-24T00:15:45.544Z,6.6
2023-05-24T00:25:48.017Z,6.5
2023-05-24T00:35:49.738Z,6.5
2023-05-24T00:45:52.078Z,6.3
2023-05-24T00:55:54.072Z,6.2
2023-05-24T01:05:56.506Z,5.9
2023-05-24T01:15:58.760Z,5.7
2023-05-24T01:26:00.310Z,5.5
2023-05-24T01:36:02.511Z,5.7
2023-05-24T01:46:04.717Z,5.5
2023-05-24T01:56:06.515Z,5.4
2023-05-24T02:06:08.273Z,5.4
2023-05-24T02:16:10.895Z,5.1
2023-05-24T02:26:12.459Z,4.9
2023-05-24T02:36:15.109Z,4.8
2023-05-24T02:46:17.382Z,4.8
2023-05-24T02:56:19.014Z,4.7
2023-05-24T03:06:21.140Z,4.6
2023-05-24T03:16:23.820Z,4.5
2023-05-24T03:26:26.308Z,4.3
2023-05-24T03:36:28.546Z,4.3
2023-05-24T03:46:30.276Z,4.6
2023-05-24T03:56:32.449Z,4.8
2023-05-24T04:06:34.820Z,4.8
2023-05-24T04:26:39.123Z,5.1
2023-05-24T04:36:40.935Z,5.3
2023-05-24T04:46:43.514Z,5.6
2023-05-24T04:56:45.843Z,5.8
2023-05-24T05:06:48.048Z,6.2
2023-05-24T05:16:50.137Z,6.5
2023-05-24T05:36:54.966Z,7.1
2023-05-24T05:46:56.944Z,7.5
2023-05-24T05:57:01.316Z,7.7
2023-05-24T06:07:01.268Z,8.3
2023-05-24T06:17:03.532Z,8.4
2023-05-24T06:27:05.775Z,8.6
2023-05-24T06:37:07.372Z,8.8
2023-05-24T06:47:09.628Z,9
2023-05-24T06:57:11.945Z,9.4
2023-05-24T07:07:14.297Z,9.2
2023-05-24T07:17:16.186Z,9.7
2023-05-24T07:27:17.825Z,9.9
2023-05-24T07:37:19.591Z,10.2
2023-05-24T07:47:21.906Z,10.1
2023-05-24T07:57:23.948Z,10.3
2023-05-24T08:07:26.252Z,10.7
2023-05-24T08:17:28.650Z,11
2023-05-24T08:27:30.381Z,10.9
2023-05-24T08:47:34.412Z,11.4
2023-05-24T08:57:36.465Z,11.1
2023-05-24T09:07:38.292Z,11.1
2023-05-24T09:17:40.505Z,11.7
2023-05-24T09:37:51.703Z,12
2023-05-24T09:47:54.221Z,11.7
2023-05-24T09:57:56.247Z,11.8
2023-05-24T10:07:58.590Z,11.6
2023-05-24T10:18:00.255Z,12.7
2023-05-24T10:28:02.577Z,12.5
2023-05-24T10:38:05.062Z,12.1
2023-05-24T10:48:07.203Z,12.3
2023-05-24T10:58:08.944Z,12
2023-05-24T11:28:14.995Z,12.4
2023-05-24T11:38:16.624Z,12.6
2023-05-24T12:08:23.254Z,12.7
2023-05-24T12:28:27.766Z,12.4
2023-05-24T12:48:31.812Z,12.6
2023-05-24T13:08:38.103Z,13.2
2023-05-24T13:28:53.615Z,12.7
2023-05-24T13:48:45.324Z,13.1
2023-05-24T13:58:47.708Z,13
2023-05-24T14:18:51.603Z,13.2
2023-05-24T15:49:10.304Z,14.2
2023-05-24T15:59:12.689Z,14
2023-05-24T16:09:14.761Z,14.1
2023-05-24T16:19:17.262Z,14.2
2023-05-24T16:29:18.932Z,14.1
2023-05-24T16:39:20.659Z,14.2
2023-05-24T16:49:22.511Z,14.2
2023-05-24T18:09:40.781Z,13.8
2023-05-24T18:49:50.480Z,13.4
2023-05-24T18:59:52.907Z,13.2
2023-05-24T19:09:54.749Z,13
2023-05-24T19:19:56.879Z,12.7
2023-05-24T19:29:59.326Z,12.3
2023-05-24T19:40:01.450Z,11.9
2023-05-24T19:50:03.335Z,11.6
2023-05-24T20:00:05.302Z,11.3
2023-05-24T20:20:09.652Z,10.9
2023-05-24T20:30:11.658Z,10.8
2023-05-24T20:40:13.403Z,10.8
2023-05-24T21:00:17.425Z,10.5
2023-05-24T21:40:26.032Z,10.2
2023-05-24T22:00:30.493Z,10.2
2023-05-24T22:10:33.031Z,10.2
2023-05-24T22:20:35.449Z,10.3
2023-05-24T22:30:37.507Z,10.2
2023-05-24T22:40:39.294Z,10
2023-05-24T22:50:41.541Z,9.8
2023-05-24T23:00:43.189Z,9.8
2023-05-24T23:10:44.989Z,9.8
2023-05-24T23:20:46.867Z,9.7
2023-05-24T23:30:48.909Z,9.4
2023-05-24T23:50:54.244Z,9
